Terminal Aerodrome Forecast
Issued by NWS

Current Version | Previous Version | Graphics & Text | Print | Product List | Glossary On
Versions: 1 2 3 4 5 6 7 8 9 10 11 12 13 14 15 16 17 18 19 20 21 22 23
755
FTUS41 KPBZ 250520
TAFMGW
TAF
KMGW 250520Z 2506/2606 11010G20KT P6SM -SHRA OVC045
     FM250900 15009KT 5SM -SHRA OVC020
      TEMPO 2509/2512 BKN009
     FM251500 21007KT P6SM VCSH OVC035
     FM260200 22004KT P6SM -SHRA OVC015=

USA.gov is the U.S. government's official web portal to all federal, state and local government web resources and services.